createdAt,value
2022-11-19T00:02:20.356Z,19.10
2022-11-19T00:05:48.104Z,16.60
2022-11-19T00:08:50.661Z,16.20
2022-11-19T00:12:10.891Z,17.70
2022-11-19T00:15:12.506Z,18.90
2022-11-19T00:18:14.549Z,17.20
2022-11-19T00:21:16.290Z,17.80
2022-11-19T00:27:20.260Z,16.50
2022-11-19T00:30:46.370Z,17.10
2022-11-19T00:33:45.335Z,17.90
2022-11-19T00:36:47.140Z,16.40
2022-11-19T00:43:09.413Z,17.50
2022-11-19T00:46:11.521Z,16.40
2022-11-19T00:49:13.315Z,16.10
2022-11-19T00:55:16.505Z,15.10
2022-11-19T00:58:19.483Z,14.80
2022-11-19T01:01:23.692Z,15.60
2022-11-19T01:04:25.434Z,16.20
2022-11-19T01:10:28.745Z,15.00
2022-11-19T01:16:40.857Z,14.90
2022-11-19T01:19:42.425Z,15.20
2022-11-19T01:22:46.269Z,14.70
2022-11-19T01:25:48.089Z,15.00
2022-11-19T01:28:49.921Z,14.30
2022-11-19T01:34:53.524Z,13.60
2022-11-19T01:37:55.498Z,16.10
2022-11-19T01:40:57.970Z,17.20
2022-11-19T01:44:01.718Z,15.10
2022-11-19T01:47:03.378Z,16.70
2022-11-19T01:50:05.788Z,16.90
2022-11-19T01:53:09.529Z,14.60
2022-11-19T01:56:11.632Z,17.80
2022-11-19T02:02:19.851Z,16.10
2022-11-19T02:05:21.918Z,16.70
2022-11-19T02:08:37.894Z,17.80
2022-11-19T02:12:21.815Z,18.40
2022-11-19T02:15:32.859Z,18.50
2022-11-19T02:19:03.652Z,17.20
2022-11-19T02:22:27.032Z,17.00
2022-11-19T02:25:37.289Z,18.40
2022-11-19T02:28:46.147Z,17.30
2022-11-19T02:31:50.345Z,18.00
2022-11-19T02:34:58.889Z,19.10
2022-11-19T02:38:00.539Z,17.40
2022-11-19T02:41:34.648Z,17.90
2022-11-19T02:45:00.877Z,19.90
2022-11-19T02:48:28.055Z,19.30
2022-11-19T02:51:29.747Z,20.60
2022-11-19T02:54:31.365Z,19.30
2022-11-19T02:57:33.274Z,20.90
2022-11-19T03:01:07.116Z,22.00
2022-11-19T03:04:28.271Z,18.60
2022-11-19T03:07:30.545Z,16.90
2022-11-19T03:14:22.279Z,19.30
2022-11-19T03:17:31.159Z,18.40
2022-11-19T03:20:41.764Z,20.10
2022-11-19T03:23:49.919Z,18.70
2022-11-19T03:27:16.445Z,21.10
2022-11-19T03:30:20.040Z,20.40
2022-11-19T03:33:25.863Z,19.30
2022-11-19T03:36:33.085Z,19.20
2022-11-19T03:39:37.099Z,20.40
2022-11-19T03:42:40.078Z,20.40
2022-11-19T03:45:44.168Z,21.10
2022-11-19T03:48:48.371Z,20.70
2022-11-19T03:51:54.119Z,20.00
2022-11-19T03:54:58.935Z,20.90
2022-11-19T03:58:05.445Z,23.00
2022-11-19T04:01:07.967Z,20.00
2022-11-19T04:04:28.273Z,18.60
2022-11-19T04:07:33.185Z,20.30
2022-11-19T04:13:36.510Z,17.70
2022-11-19T04:16:38.303Z,18.10
2022-11-19T04:22:42.231Z,18.50
2022-11-19T04:25:47.601Z,19.00
2022-11-19T04:28:49.304Z,19.10
2022-11-19T04:31:51.025Z,17.00
2022-11-19T04:34:52.617Z,18.80
2022-11-19T04:37:54.410Z,18.90
2022-11-19T04:40:56.141Z,19.20
2022-11-19T04:44:00.944Z,20.20
2022-11-19T04:47:03.225Z,19.50
2022-11-19T04:50:05.704Z,19.10
2022-11-19T04:53:07.325Z,19.70
2022-11-19T04:56:09.050Z,19.60
2022-11-19T04:59:10.676Z,17.60
2022-11-19T05:02:12.417Z,19.40
2022-11-19T05:08:15.867Z,19.30
2022-11-19T05:11:17.525Z,18.20
2022-11-19T05:14:19.160Z,18.50
2022-11-19T05:17:21.201Z,18.50
2022-11-19T05:23:25.467Z,19.40
2022-11-19T05:26:27.066Z,18.60
2022-11-19T05:29:28.738Z,19.80
2022-11-19T05:32:30.397Z,18.80
2022-11-19T05:35:32.676Z,19.90
2022-11-19T05:38:34.607Z,19.10
2022-11-19T05:41:36.442Z,20.10
2022-11-19T05:47:43.338Z,19.30
2022-11-19T05:50:47.714Z,18.00
2022-11-19T05:53:49.492Z,19.60
2022-11-19T05:56:51.194Z,20.60
2022-11-19T05:59:52.960Z,19.30
2022-11-19T06:05:56.358Z,17.20
2022-11-19T06:08:57.962Z,18.10
2022-11-19T06:11:59.918Z,15.00
2022-11-19T06:18:04.188Z,14.50
2022-11-19T06:21:10.876Z,15.90
2022-11-19T06:24:14.336Z,14.40
2022-11-19T06:27:15.944Z,14.40
2022-11-19T06:30:17.583Z,15.60
2022-11-19T06:33:19.327Z,20.90
2022-11-19T06:36:21.989Z,23.00
2022-11-19T06:39:23.799Z,17.20
2022-11-19T06:45:39.416Z,15.80
2022-11-19T06:48:41.593Z,16.90
2022-11-19T06:51:43.230Z,18.30
2022-11-19T06:54:44.902Z,17.90
2022-11-19T06:57:46.573Z,17.80
2022-11-19T07:00:48.259Z,16.70
2022-11-19T07:03:50.195Z,15.50
2022-11-19T07:06:51.853Z,17.20
2022-11-19T07:09:53.469Z,16.00
2022-11-19T07:12:55.199Z,16.50
2022-11-19T07:15:56.845Z,16.90
2022-11-19T07:18:59.902Z,16.30
2022-11-19T07:22:01.736Z,18.00
2022-11-19T07:25:03.380Z,16.60
2022-11-19T07:28:05.131Z,16.80
2022-11-19T07:31:08.071Z,16.50
2022-11-19T07:34:10.672Z,16.10
2022-11-19T07:37:12.509Z,16.50
2022-11-19T07:40:16.729Z,16.00
2022-11-19T07:43:18.340Z,16.20
2022-11-19T07:46:20.104Z,16.00
2022-11-19T07:49:22.264Z,16.50
2022-11-19T07:52:24.305Z,14.90
2022-11-19T07:55:25.938Z,14.50
2022-11-19T07:58:27.609Z,15.70
2022-11-19T08:01:29.504Z,22.20
2022-11-19T08:07:32.886Z,16.00
2022-11-19T08:10:35.487Z,15.20
2022-11-19T08:13:37.820Z,15.40
2022-11-19T08:16:58.537Z,17.20
2022-11-19T08:20:00.312Z,18.90
2022-11-19T08:23:01.880Z,17.10
2022-11-19T08:26:04.243Z,18.70
2022-11-19T08:29:06.189Z,18.80
2022-11-19T08:32:08.109Z,18.80
2022-11-19T08:38:11.362Z,20.50
2022-11-19T08:41:32.002Z,19.70
2022-11-19T08:44:33.692Z,18.40
2022-11-19T08:47:35.444Z,18.30
2022-11-19T08:50:37.369Z,18.20
2022-11-19T08:56:40.687Z,19.70
2022-11-19T09:02:44.103Z,17.50
2022-11-19T09:05:45.964Z,18.70
2022-11-19T09:11:49.166Z,18.90
2022-11-19T09:14:50.826Z,19.10
2022-11-19T09:17:52.445Z,18.20
2022-11-19T09:20:56.264Z,18.70
2022-11-19T09:23:58.004Z,22.20
2022-11-19T09:30:06.245Z,17.70
2022-11-19T09:33:08.109Z,18.30
2022-11-19T09:39:12.124Z,18.10
2022-11-19T09:45:26.999Z,19.20
2022-11-19T09:48:34.733Z,17.00
2022-11-19T09:51:37.845Z,18.90
2022-11-19T09:54:44.935Z,21.50
2022-11-19T09:57:51.130Z,17.30
2022-11-19T10:00:53.195Z,19.50
2022-11-19T10:03:55.179Z,18.10
2022-11-19T10:07:06.580Z,18.90
2022-11-19T10:10:16.089Z,17.80
2022-11-19T10:13:30.914Z,17.60
2022-11-19T10:16:57.171Z,19.20
2022-11-19T10:20:17.009Z,18.30
2022-11-19T10:23:41.257Z,16.50
2022-11-19T10:27:09.999Z,17.70
2022-11-19T10:30:18.186Z,18.70
2022-11-19T10:33:31.883Z,17.20
2022-11-19T10:36:42.761Z,19.10
2022-11-19T10:39:54.876Z,17.00
2022-11-19T10:43:29.537Z,17.60
2022-11-19T10:46:31.490Z,17.00
2022-11-19T10:49:41.820Z,17.10
2022-11-19T10:52:46.838Z,18.20
2022-11-19T10:55:55.036Z,26.30
2022-11-19T10:58:58.845Z,24.60
2022-11-19T11:02:04.025Z,17.00
2022-11-19T11:05:12.289Z,15.60
2022-11-19T11:08:13.937Z,15.20
2022-11-19T11:14:45.333Z,16.50
2022-11-19T11:17:48.227Z,16.90
2022-11-19T11:20:50.651Z,18.50
2022-11-19T11:23:54.198Z,18.20
2022-11-19T11:27:20.465Z,17.10
2022-11-19T11:30:22.431Z,17.30
2022-11-19T11:33:28.404Z,17.70
2022-11-19T11:36:33.424Z,15.90
2022-11-19T11:39:38.565Z,17.00
2022-11-19T11:42:40.234Z,16.30
2022-11-19T11:45:41.923Z,17.40
2022-11-19T11:48:47.906Z,17.40
2022-11-19T11:52:03.465Z,18.00
2022-11-19T11:55:11.442Z,16.40
2022-11-19T11:58:27.316Z,16.60
2022-11-19T12:01:29.067Z,18.00
2022-11-19T12:08:04.389Z,15.70
2022-11-19T12:11:24.430Z,15.90
2022-11-19T12:14:46.584Z,16.40
2022-11-19T12:18:43.086Z,18.50
2022-11-19T12:21:50.514Z,18.70
2022-11-19T12:25:21.819Z,18.30
2022-11-19T12:28:42.350Z,18.20
2022-11-19T12:32:23.211Z,17.90
2022-11-19T12:35:49.758Z,17.60
2022-11-19T12:39:23.458Z,15.30
2022-11-19T12:42:49.472Z,16.20
2022-11-19T12:46:12.930Z,18.90
2022-11-19T12:49:46.732Z,20.40
2022-11-19T12:52:57.153Z,18.30
2022-11-19T12:56:17.771Z,17.70
2022-11-19T12:59:57.238Z,18.00
2022-11-19T13:03:33.515Z,17.90
2022-11-19T13:06:40.085Z,19.60
2022-11-19T13:09:44.216Z,17.90
2022-11-19T13:12:50.168Z,17.10
2022-11-19T13:15:58.305Z,18.30
2022-11-19T13:19:18.974Z,17.70
2022-11-19T13:22:24.919Z,18.10
2022-11-19T13:25:39.389Z,18.40
2022-11-19T13:28:53.640Z,16.90
2022-11-19T13:31:59.130Z,17.40
2022-11-19T13:35:23.462Z,18.00
2022-11-19T13:38:49.012Z,17.20
2022-11-19T13:42:10.616Z,17.10
2022-11-19T13:45:16.766Z,15.20
2022-11-19T13:48:24.812Z,20.30
2022-11-19T13:51:33.319Z,23.80
2022-11-19T13:54:39.949Z,22.20
2022-11-19T13:57:43.728Z,20.00
2022-11-19T14:01:17.600Z,18.80
2022-11-19T14:04:26.842Z,18.80
2022-11-19T14:07:47.180Z,17.70
2022-11-19T14:10:57.918Z,20.80
2022-11-19T14:14:29.936Z,17.90
2022-11-19T14:18:04.526Z,23.30
2022-11-19T14:21:59.995Z,20.70
2022-11-19T14:25:34.325Z,21.40
2022-11-19T14:28:52.764Z,17.70
2022-11-19T14:32:00.353Z,20.80
2022-11-19T14:35:02.022Z,20.00
2022-11-19T14:38:30.469Z,19.40
2022-11-19T14:41:35.594Z,18.80
2022-11-19T14:44:37.235Z,18.60
2022-11-19T14:47:43.785Z,18.70
2022-11-19T14:51:17.943Z,20.50
2022-11-19T14:54:31.280Z,24.10
2022-11-19T14:57:41.880Z,19.70
2022-11-19T15:00:43.892Z,24.50
2022-11-19T15:03:48.931Z,24.90
2022-11-19T15:06:51.893Z,21.80
2022-11-19T15:10:14.006Z,21.90
2022-11-19T15:13:18.860Z,23.30
2022-11-19T15:16:26.045Z,23.50
2022-11-19T15:19:58.356Z,23.30
2022-11-19T15:23:04.646Z,21.60
2022-11-19T15:26:37.412Z,21.60
2022-11-19T15:30:00.837Z,20.00
2022-11-19T15:33:54.083Z,21.30
2022-11-19T15:37:01.035Z,25.20
2022-11-19T15:40:03.026Z,37.60
2022-11-19T15:43:29.134Z,37.70
2022-11-19T15:46:47.732Z,33.20
2022-11-19T15:49:51.185Z,32.60
2022-11-19T15:53:23.195Z,40.60
2022-11-19T15:56:25.110Z,39.10
2022-11-19T15:59:28.446Z,55.40
2022-11-19T16:02:37.002Z,191.90
2022-11-19T16:05:39.832Z,122.60
2022-11-19T16:08:41.757Z,62.00
2022-11-19T16:12:02.337Z,40.30
2022-11-19T16:15:35.508Z,34.60
2022-11-19T16:18:47.936Z,37.50
2022-11-19T16:21:56.905Z,48.70
2022-11-19T16:25:04.485Z,50.60
2022-11-19T16:28:09.892Z,47.90
2022-11-19T16:31:13.060Z,44.70
2022-11-19T16:34:21.690Z,50.00
2022-11-19T16:37:23.800Z,49.00
2022-11-19T16:40:26.263Z,43.30
2022-11-19T16:43:28.028Z,42.10
2022-11-19T16:49:40.977Z,31.00
2022-11-19T16:52:43.311Z,41.10
2022-11-19T16:55:50.598Z,37.80
2022-11-19T16:58:56.943Z,40.50
2022-11-19T17:01:59.955Z,43.20
2022-11-19T17:05:10.650Z,43.50
2022-11-19T17:08:25.275Z,40.10
2022-11-19T17:12:05.609Z,54.40
2022-11-19T17:15:42.633Z,53.50
2022-11-19T17:18:44.416Z,53.50
2022-11-19T17:21:55.653Z,49.70
2022-11-19T17:24:57.506Z,57.90
2022-11-19T17:31:03.738Z,60.60
2022-11-19T17:34:13.428Z,49.70
2022-11-19T17:37:15.375Z,78.30
2022-11-19T17:40:17.024Z,82.50
2022-11-19T17:43:51.025Z,60.70
2022-11-19T17:46:53.302Z,90.80
2022-11-19T17:49:54.872Z,55.50
2022-11-19T17:52:56.764Z,45.60
2022-11-19T17:59:01.095Z,38.20
2022-11-19T18:02:02.921Z,38.00
2022-11-19T18:05:14.175Z,38.20
2022-11-19T18:08:16.617Z,42.00
2022-11-19T18:11:22.632Z,48.50
2022-11-19T18:14:24.358Z,47.60
2022-11-19T18:17:26.360Z,53.10
2022-11-19T18:20:28.010Z,53.50
2022-11-19T18:23:29.585Z,52.60
2022-11-19T18:26:31.701Z,52.10
2022-11-19T18:29:33.758Z,43.40
2022-11-19T18:32:35.602Z,41.10
2022-11-19T18:38:39.127Z,48.60
2022-11-19T18:41:41.548Z,50.00
2022-11-19T18:44:43.739Z,49.10
2022-11-19T18:47:45.668Z,51.70
2022-11-19T18:53:49.110Z,51.40
2022-11-19T18:56:51.017Z,50.60
2022-11-19T19:02:54.354Z,45.70
2022-11-19T19:05:56.259Z,48.20
2022-11-19T19:12:18.354Z,44.00
2022-11-19T19:15:20.185Z,48.10
2022-11-19T19:18:22.021Z,47.20
2022-11-19T19:21:24.439Z,45.70
2022-11-19T19:24:26.674Z,48.40
2022-11-19T19:27:29.091Z,46.20
2022-11-19T19:33:32.319Z,52.50
2022-11-19T19:36:34.725Z,67.20
2022-11-19T19:39:36.403Z,79.00
2022-11-19T19:42:41.222Z,80.10
2022-11-19T19:45:43.349Z,76.70
2022-11-19T19:48:53.322Z,78.30
2022-11-19T19:51:55.463Z,79.50
2022-11-19T19:54:57.019Z,75.20
2022-11-19T19:58:00.302Z,61.10
2022-11-19T20:01:13.678Z,55.70
2022-11-19T20:04:15.364Z,52.90
2022-11-19T20:07:17.038Z,52.30
2022-11-19T20:10:18.711Z,50.80
2022-11-19T20:13:29.198Z,47.60
2022-11-19T20:16:32.909Z,49.20
2022-11-19T20:19:34.751Z,48.10
2022-11-19T20:25:38.779Z,47.00
2022-11-19T20:28:40.660Z,47.20
2022-11-19T20:34:47.482Z,46.30
2022-11-19T20:37:49.376Z,45.20
2022-11-19T20:44:19.480Z,46.80
2022-11-19T20:47:21.160Z,49.40
2022-11-19T20:50:22.890Z,50.80
2022-11-19T20:56:26.537Z,51.30
2022-11-19T20:59:28.728Z,54.60
2022-11-19T21:02:30.435Z,55.20
2022-11-19T21:05:32.581Z,50.80
2022-11-19T21:08:35.828Z,52.30
2022-11-19T21:11:37.736Z,55.80
2022-11-19T21:17:41.052Z,51.80
2022-11-19T21:20:43.252Z,51.30
2022-11-19T21:23:45.477Z,48.10
2022-11-19T21:26:47.666Z,52.10
2022-11-19T21:29:49.733Z,50.50
2022-11-19T21:32:51.706Z,51.30
2022-11-19T21:35:55.033Z,45.40
2022-11-19T21:38:56.890Z,55.00
2022-11-19T21:41:58.477Z,53.00
2022-11-19T21:45:00.121Z,48.70
2022-11-19T21:48:01.826Z,49.30
2022-11-19T21:51:07.807Z,47.60
2022-11-19T21:54:09.486Z,51.60
2022-11-19T21:57:39.591Z,53.80
2022-11-19T22:00:42.900Z,57.80
2022-11-19T22:03:44.555Z,48.90
2022-11-19T22:06:46.304Z,68.20
2022-11-19T22:09:47.981Z,74.00
2022-11-19T22:12:49.599Z,72.70
2022-11-19T22:15:58.961Z,75.10
2022-11-19T22:19:01.021Z,76.10
2022-11-19T22:22:03.560Z,70.90
2022-11-19T22:25:05.413Z,66.20
2022-11-19T22:28:07.093Z,56.90
2022-11-19T22:31:08.809Z,54.90
2022-11-19T22:34:12.123Z,52.40
2022-11-19T22:37:13.768Z,58.30
2022-11-19T22:40:15.492Z,56.80
2022-11-19T22:43:21.666Z,52.10
2022-11-19T22:46:24.757Z,59.50
2022-11-19T22:52:28.252Z,62.50
2022-11-19T22:55:29.888Z,63.40
2022-11-19T22:58:33.603Z,60.50
2022-11-19T23:01:35.831Z,63.10
2022-11-19T23:04:37.488Z,68.30
2022-11-19T23:07:39.291Z,57.40
2022-11-19T23:13:44.587Z,53.40
2022-11-19T23:16:46.517Z,57.80
2022-11-19T23:19:48.243Z,51.70
2022-11-19T23:22:49.921Z,56.40
2022-11-19T23:25:58.927Z,54.00
2022-11-19T23:29:01.174Z,54.20
2022-11-19T23:32:03.132Z,58.10
2022-11-19T23:35:05.335Z,56.80
2022-11-19T23:38:09.010Z,57.40
2022-11-19T23:41:13.497Z,56.60
2022-11-19T23:44:15.267Z,56.80
2022-11-19T23:47:16.887Z,57.10
2022-11-19T23:50:18.640Z,59.40
2022-11-19T23:53:20.733Z,58.00
2022-11-19T23:56:23.983Z,61.80
2022-11-19T23:59:26.048Z,61.50
